sensor_id;sensor_type;location;lat;lon;timestamp;P1;durP1;ratioP1;P2;durP2;ratioP2
45618;SDS011;31343;47.520;19.144;2023-09-12T00:01:42;3.20;;;2.40;;
45618;SDS011;31343;47.520;19.144;2023-09-12T00:04:08;2.47;;;1.55;;
45618;SDS011;31343;47.520;19.144;2023-09-12T00:06:36;5.65;;;2.78;;
45618;SDS011;31343;47.520;19.144;2023-09-12T00:09:02;6.60;;;2.45;;
45618;SDS011;31343;47.520;19.144;2023-09-12T00:11:30;3.20;;;2.17;;
45618;SDS011;31343;47.520;19.144;2023-09-12T00:13:58;3.72;;;1.92;;
45618;SDS011;31343;47.520;19.144;2023-09-12T00:16:24;2.22;;;1.98;;
45618;SDS011;31343;47.520;19.144;2023-09-12T00:18:50;5.03;;;3.08;;
45618;SDS011;31343;47.520;19.144;2023-09-12T00:21:16;3.88;;;2.17;;
45618;SDS011;31343;47.520;19.144;2023-09-12T00:23:41;5.50;;;3.15;;
45618;SDS011;31343;47.520;19.144;2023-09-12T00:26:07;4.07;;;2.17;;
45618;SDS011;31343;47.520;19.144;2023-09-12T00:28:33;2.78;;;1.73;;
45618;SDS011;31343;47.520;19.144;2023-09-12T00:30:59;3.03;;;1.90;;
45618;SDS011;31343;47.520;19.144;2023-09-12T00:33:25;5.47;;;2.97;;
45618;SDS011;31343;47.520;19.144;2023-09-12T00:35:51;3.33;;;2.30;;
45618;SDS011;31343;47.520;19.144;2023-09-12T00:38:16;3.40;;;2.25;;
45618;SDS011;31343;47.520;19.144;2023-09-12T00:40:42;3.33;;;2.42;;
45618;SDS011;31343;47.520;19.144;2023-09-12T00:43:08;2.55;;;1.98;;
45618;SDS011;31343;47.520;19.144;2023-09-12T00:45:35;3.92;;;2.95;;
45618;SDS011;31343;47.520;19.144;2023-09-12T00:48:01;3.35;;;2.28;;
45618;SDS011;31343;47.520;19.144;2023-09-12T00:50:29;2.85;;;1.88;;
45618;SDS011;31343;47.520;19.144;2023-09-12T00:52:56;4.85;;;2.55;;
45618;SDS011;31343;47.520;19.144;2023-09-12T00:55:23;3.30;;;1.60;;
45618;SDS011;31343;47.520;19.144;2023-09-12T00:57:49;3.70;;;2.25;;
45618;SDS011;31343;47.520;19.144;2023-09-12T01:00:16;3.35;;;2.13;;
45618;SDS011;31343;47.520;19.144;2023-09-12T01:02:42;4.50;;;2.10;;
45618;SDS011;31343;47.520;19.144;2023-09-12T01:05:09;6.13;;;2.58;;
45618;SDS011;31343;47.520;19.144;2023-09-12T01:07:36;3.90;;;2.42;;
45618;SDS011;31343;47.520;19.144;2023-09-12T01:10:03;4.18;;;2.55;;
45618;SDS011;31343;47.520;19.144;2023-09-12T01:12:30;5.55;;;2.85;;
45618;SDS011;31343;47.520;19.144;2023-09-12T01:14:56;3.20;;;2.38;;
45618;SDS011;31343;47.520;19.144;2023-09-12T01:17:22;2.92;;;2.25;;
45618;SDS011;31343;47.520;19.144;2023-09-12T01:19:48;3.58;;;2.60;;
45618;SDS011;31343;47.520;19.144;2023-09-12T01:27:47;3.25;;;2.35;;
45618;SDS011;31343;47.520;19.144;2023-09-12T01:30:21;3.20;;;1.95;;
45618;SDS011;31343;47.520;19.144;2023-09-12T01:32:48;3.15;;;2.08;;
45618;SDS011;31343;47.520;19.144;2023-09-12T01:35:14;4.60;;;2.50;;
45618;SDS011;31343;47.520;19.144;2023-09-12T01:37:40;2.72;;;2.13;;
45618;SDS011;31343;47.520;19.144;2023-09-12T01:40:06;4.28;;;2.08;;
45618;SDS011;31343;47.520;19.144;2023-09-12T01:42:37;2.78;;;2.17;;
45618;SDS011;31343;47.520;19.144;2023-09-12T01:45:05;4.35;;;2.30;;
45618;SDS011;31343;47.520;19.144;2023-09-12T01:47:34;4.68;;;3.03;;
45618;SDS011;31343;47.520;19.144;2023-09-12T01:50:01;4.15;;;2.47;;
45618;SDS011;31343;47.520;19.144;2023-09-12T01:52:28;5.00;;;2.28;;
45618;SDS011;31343;47.520;19.144;2023-09-12T01:54:54;2.95;;;1.88;;
45618;SDS011;31343;47.520;19.144;2023-09-12T01:57:21;5.40;;;2.80;;
45618;SDS011;31343;47.520;19.144;2023-09-12T01:59:47;3.40;;;2.35;;
45618;SDS011;31343;47.520;19.144;2023-09-12T02:02:16;3.63;;;2.15;;
45618;SDS011;31343;47.520;19.144;2023-09-12T02:04:54;4.05;;;2.33;;
45618;SDS011;31343;47.520;19.144;2023-09-12T02:07:37;3.28;;;2.05;;
45618;SDS011;31343;47.520;19.144;2023-09-12T02:10:04;3.75;;;2.70;;
45618;SDS011;31343;47.520;19.144;2023-09-12T02:12:31;4.35;;;2.05;;
45618;SDS011;31343;47.520;19.144;2023-09-12T02:14:57;11.27;;;2.65;;
45618;SDS011;31343;47.520;19.144;2023-09-12T02:17:23;3.28;;;1.77;;
45618;SDS011;31343;47.520;19.144;2023-09-12T02:19:48;2.22;;;1.92;;
45618;SDS011;31343;47.520;19.144;2023-09-12T02:22:14;3.50;;;2.17;;
45618;SDS011;31343;47.520;19.144;2023-09-12T02:24:40;3.42;;;2.40;;
45618;SDS011;31343;47.520;19.144;2023-09-12T02:27:06;3.60;;;1.80;;
45618;SDS011;31343;47.520;19.144;2023-09-12T02:29:31;3.53;;;2.30;;
45618;SDS011;31343;47.520;19.144;2023-09-12T02:32:00;2.50;;;1.73;;
45618;SDS011;31343;47.520;19.144;2023-09-12T02:34:26;2.67;;;1.50;;
45618;SDS011;31343;47.520;19.144;2023-09-12T02:36:52;3.15;;;2.17;;
45618;SDS011;31343;47.520;19.144;2023-09-12T02:39:18;2.97;;;2.08;;
45618;SDS011;31343;47.520;19.144;2023-09-12T02:41:43;2.85;;;1.90;;
45618;SDS011;31343;47.520;19.144;2023-09-12T02:44:09;4.15;;;2.65;;
45618;SDS011;31343;47.520;19.144;2023-09-12T02:46:36;2.65;;;1.95;;
45618;SDS011;31343;47.520;19.144;2023-09-12T02:49:03;4.28;;;2.17;;
45618;SDS011;31343;47.520;19.144;2023-09-12T02:51:28;4.43;;;2.20;;
45618;SDS011;31343;47.520;19.144;2023-09-12T02:53:54;5.47;;;2.40;;
45618;SDS011;31343;47.520;19.144;2023-09-12T02:56:20;3.45;;;2.35;;
45618;SDS011;31343;47.520;19.144;2023-09-12T02:58:46;3.13;;;2.15;;
45618;SDS011;31343;47.520;19.144;2023-09-12T03:01:19;2.85;;;2.03;;
45618;SDS011;31343;47.520;19.144;2023-09-12T03:03:46;2.95;;;2.20;;
45618;SDS011;31343;47.520;19.144;2023-09-12T03:06:13;4.43;;;2.65;;
45618;SDS011;31343;47.520;19.144;2023-09-12T03:08:39;3.63;;;2.50;;
45618;SDS011;31343;47.520;19.144;2023-09-12T03:11:05;2.65;;;2.08;;
45618;SDS011;31343;47.520;19.144;2023-09-12T03:13:33;3.80;;;2.25;;
45618;SDS011;31343;47.520;19.144;2023-09-12T03:15:59;4.45;;;2.78;;
45618;SDS011;31343;47.520;19.144;2023-09-12T03:18:25;4.75;;;2.88;;
45618;SDS011;31343;47.520;19.144;2023-09-12T03:20:51;4.25;;;2.38;;
45618;SDS011;31343;47.520;19.144;2023-09-12T03:23:17;2.65;;;1.98;;
45618;SDS011;31343;47.520;19.144;2023-09-12T03:25:44;4.28;;;2.53;;
45618;SDS011;31343;47.520;19.144;2023-09-12T03:28:10;3.72;;;3.13;;
45618;SDS011;31343;47.520;19.144;2023-09-12T03:30:36;3.92;;;2.63;;
45618;SDS011;31343;47.520;19.144;2023-09-12T03:33:03;3.05;;;1.95;;
45618;SDS011;31343;47.520;19.144;2023-09-12T03:35:30;3.38;;;2.15;;
45618;SDS011;31343;47.520;19.144;2023-09-12T03:37:57;2.30;;;1.75;;
45618;SDS011;31343;47.520;19.144;2023-09-12T03:40:23;3.50;;;2.28;;
45618;SDS011;31343;47.520;19.144;2023-09-12T03:42:49;4.78;;;2.45;;
45618;SDS011;31343;47.520;19.144;2023-09-12T03:45:14;3.13;;;2.47;;
45618;SDS011;31343;47.520;19.144;2023-09-12T03:47:40;5.05;;;2.83;;
45618;SDS011;31343;47.520;19.144;2023-09-12T03:50:06;4.53;;;2.75;;
45618;SDS011;31343;47.520;19.144;2023-09-12T03:52:32;3.05;;;2.00;;
45618;SDS011;31343;47.520;19.144;2023-09-12T03:54:58;3.60;;;2.05;;
45618;SDS011;31343;47.520;19.144;2023-09-12T03:57:26;3.55;;;2.05;;
45618;SDS011;31343;47.520;19.144;2023-09-12T03:59:52;4.63;;;2.42;;
45618;SDS011;31343;47.520;19.144;2023-09-12T04:02:18;4.57;;;2.13;;
45618;SDS011;31343;47.520;19.144;2023-09-12T04:04:44;2.70;;;2.33;;
45618;SDS011;31343;47.520;19.144;2023-09-12T04:07:09;3.22;;;2.05;;
45618;SDS011;31343;47.520;19.144;2023-09-12T04:09:35;5.80;;;2.30;;
45618;SDS011;31343;47.520;19.144;2023-09-12T04:12:01;2.58;;;2.20;;
45618;SDS011;31343;47.520;19.144;2023-09-12T04:14:27;3.28;;;2.20;;
45618;SDS011;31343;47.520;19.144;2023-09-12T04:16:53;5.75;;;2.70;;
45618;SDS011;31343;47.520;19.144;2023-09-12T04:19:18;2.85;;;2.08;;
45618;SDS011;31343;47.520;19.144;2023-09-12T04:21:44;3.85;;;2.10;;
45618;SDS011;31343;47.520;19.144;2023-09-12T04:24:10;4.80;;;2.88;;
45618;SDS011;31343;47.520;19.144;2023-09-12T04:26:36;3.50;;;2.88;;
45618;SDS011;31343;47.520;19.144;2023-09-12T04:29:02;3.63;;;2.65;;
45618;SDS011;31343;47.520;19.144;2023-09-12T04:31:27;3.75;;;2.47;;
45618;SDS011;31343;47.520;19.144;2023-09-12T04:33:54;5.28;;;2.47;;
45618;SDS011;31343;47.520;19.144;2023-09-12T04:36:22;4.10;;;3.05;;
45618;SDS011;31343;47.520;19.144;2023-09-12T04:38:48;3.08;;;2.50;;
45618;SDS011;31343;47.520;19.144;2023-09-12T04:41:14;3.90;;;2.45;;
45618;SDS011;31343;47.520;19.144;2023-09-12T04:43:42;3.08;;;1.85;;
45618;SDS011;31343;47.520;19.144;2023-09-12T04:46:09;3.10;;;1.83;;
45618;SDS011;31343;47.520;19.144;2023-09-12T04:48:35;4.60;;;2.55;;
45618;SDS011;31343;47.520;19.144;2023-09-12T04:51:01;2.92;;;2.13;;
45618;SDS011;31343;47.520;19.144;2023-09-12T04:53:27;4.43;;;1.98;;
45618;SDS011;31343;47.520;19.144;2023-09-12T04:55:58;2.75;;;1.63;;
45618;SDS011;31343;47.520;19.144;2023-09-12T04:58:24;4.40;;;2.95;;
45618;SDS011;31343;47.520;19.144;2023-09-12T05:00:50;4.13;;;2.53;;
45618;SDS011;31343;47.520;19.144;2023-09-12T05:03:16;3.42;;;1.95;;
45618;SDS011;31343;47.520;19.144;2023-09-12T05:05:41;3.70;;;2.40;;
45618;SDS011;31343;47.520;19.144;2023-09-12T05:08:10;3.55;;;2.47;;
45618;SDS011;31343;47.520;19.144;2023-09-12T05:10:35;3.75;;;2.70;;
45618;SDS011;31343;47.520;19.144;2023-09-12T05:13:03;3.92;;;2.53;;
45618;SDS011;31343;47.520;19.144;2023-09-12T05:15:29;3.20;;;2.60;;
45618;SDS011;31343;47.520;19.144;2023-09-12T05:17:55;4.68;;;2.35;;
45618;SDS011;31343;47.520;19.144;2023-09-12T05:20:21;3.33;;;2.40;;
45618;SDS011;31343;47.520;19.144;2023-09-12T05:22:47;2.70;;;2.08;;
45618;SDS011;31343;47.520;19.144;2023-09-12T05:25:13;6.88;;;2.95;;
45618;SDS011;31343;47.520;19.144;2023-09-12T05:27:38;5.82;;;3.42;;
45618;SDS011;31343;47.520;19.144;2023-09-12T05:30:04;4.10;;;2.45;;
45618;SDS011;31343;47.520;19.144;2023-09-12T05:32:30;4.28;;;2.63;;
45618;SDS011;31343;47.520;19.144;2023-09-12T05:34:56;3.80;;;2.63;;
45618;SDS011;31343;47.520;19.144;2023-09-12T05:37:22;3.45;;;2.30;;
45618;SDS011;31343;47.520;19.144;2023-09-12T05:39:48;3.58;;;2.47;;
45618;SDS011;31343;47.520;19.144;2023-09-12T05:42:13;6.22;;;2.53;;
45618;SDS011;31343;47.520;19.144;2023-09-12T05:44:45;5.85;;;2.88;;
45618;SDS011;31343;47.520;19.144;2023-09-12T05:47:12;3.53;;;2.65;;
45618;SDS011;31343;47.520;19.144;2023-09-12T05:49:37;4.47;;;2.80;;
45618;SDS011;31343;47.520;19.144;2023-09-12T05:52:03;4.88;;;3.35;;
45618;SDS011;31343;47.520;19.144;2023-09-12T05:54:29;3.72;;;2.63;;
45618;SDS011;31343;47.520;19.144;2023-09-12T05:56:55;3.17;;;2.65;;
45618;SDS011;31343;47.520;19.144;2023-09-12T05:59:21;3.78;;;2.83;;
45618;SDS011;31343;47.520;19.144;2023-09-12T06:01:46;4.43;;;2.70;;
45618;SDS011;31343;47.520;19.144;2023-09-12T06:04:14;3.75;;;2.60;;
45618;SDS011;31343;47.520;19.144;2023-09-12T06:06:40;3.42;;;2.42;;
45618;SDS011;31343;47.520;19.144;2023-09-12T06:09:06;3.75;;;2.67;;
45618;SDS011;31343;47.520;19.144;2023-09-12T06:11:33;3.85;;;2.88;;
45618;SDS011;31343;47.520;19.144;2023-09-12T06:13:59;3.63;;;2.35;;
45618;SDS011;31343;47.520;19.144;2023-09-12T06:16:25;3.38;;;2.75;;
45618;SDS011;31343;47.520;19.144;2023-09-12T06:18:51;3.83;;;2.65;;
45618;SDS011;31343;47.520;19.144;2023-09-12T06:21:18;3.38;;;2.05;;
45618;SDS011;31343;47.520;19.144;2023-09-12T06:23:46;3.33;;;2.17;;
45618;SDS011;31343;47.520;19.144;2023-09-12T06:26:12;5.95;;;2.67;;
45618;SDS011;31343;47.520;19.144;2023-09-12T06:28:38;3.33;;;2.33;;
45618;SDS011;31343;47.520;19.144;2023-09-12T06:31:03;2.88;;;2.20;;
45618;SDS011;31343;47.520;19.144;2023-09-12T06:33:34;3.10;;;2.20;;
45618;SDS011;31343;47.520;19.144;2023-09-12T06:36:00;3.22;;;2.15;;
45618;SDS011;31343;47.520;19.144;2023-09-12T06:38:26;5.05;;;2.58;;
45618;SDS011;31343;47.520;19.144;2023-09-12T06:40:51;5.07;;;2.78;;
45618;SDS011;31343;47.520;19.144;2023-09-12T06:43:17;3.65;;;1.88;;
45618;SDS011;31343;47.520;19.144;2023-09-12T06:45:43;4.20;;;2.08;;
45618;SDS011;31343;47.520;19.144;2023-09-12T06:48:09;3.38;;;2.35;;
45618;SDS011;31343;47.520;19.144;2023-09-12T06:50:35;3.25;;;2.17;;
45618;SDS011;31343;47.520;19.144;2023-09-12T06:53:03;3.95;;;2.05;;
45618;SDS011;31343;47.520;19.144;2023-09-12T06:55:31;2.75;;;1.70;;
45618;SDS011;31343;47.520;19.144;2023-09-12T06:57:57;5.45;;;2.50;;
45618;SDS011;31343;47.520;19.144;2023-09-12T07:00:23;2.65;;;1.83;;
45618;SDS011;31343;47.520;19.144;2023-09-12T07:02:49;4.30;;;2.33;;
45618;SDS011;31343;47.520;19.144;2023-09-12T07:05:15;3.53;;;2.28;;
45618;SDS011;31343;47.520;19.144;2023-09-12T07:07:41;8.05;;;1.90;;
45618;SDS011;31343;47.520;19.144;2023-09-12T07:10:06;3.92;;;2.10;;
45618;SDS011;31343;47.520;19.144;2023-09-12T07:12:32;4.00;;;2.10;;
45618;SDS011;31343;47.520;19.144;2023-09-12T07:14:59;2.90;;;1.75;;
45618;SDS011;31343;47.520;19.144;2023-09-12T07:17:27;3.50;;;2.15;;
45618;SDS011;31343;47.520;19.144;2023-09-12T07:19:53;6.18;;;2.13;;
45618;SDS011;31343;47.520;19.144;2023-09-12T07:22:18;3.50;;;2.50;;
45618;SDS011;31343;47.520;19.144;2023-09-12T07:24:44;3.47;;;2.10;;
45618;SDS011;31343;47.520;19.144;2023-09-12T07:27:10;3.38;;;2.40;;
45618;SDS011;31343;47.520;19.144;2023-09-12T07:29:36;3.67;;;2.60;;
45618;SDS011;31343;47.520;19.144;2023-09-12T07:32:02;3.33;;;2.13;;
45618;SDS011;31343;47.520;19.144;2023-09-12T07:34:28;2.55;;;1.98;;
45618;SDS011;31343;47.520;19.144;2023-09-12T07:36:54;4.00;;;2.58;;
45618;SDS011;31343;47.520;19.144;2023-09-12T07:39:20;3.33;;;2.40;;
45618;SDS011;31343;47.520;19.144;2023-09-12T07:41:46;3.40;;;2.70;;
45618;SDS011;31343;47.520;19.144;2023-09-12T07:44:12;3.05;;;2.03;;
45618;SDS011;31343;47.520;19.144;2023-09-12T07:46:40;3.13;;;2.28;;
45618;SDS011;31343;47.520;19.144;2023-09-12T07:49:06;4.00;;;2.25;;
45618;SDS011;31343;47.520;19.144;2023-09-12T07:51:34;10.70;;;2.42;;
45618;SDS011;31343;47.520;19.144;2023-09-12T07:54:00;2.75;;;1.85;;
45618;SDS011;31343;47.520;19.144;2023-09-12T07:56:26;4.95;;;3.22;;
45618;SDS011;31343;47.520;19.144;2023-09-12T07:58:52;3.75;;;2.78;;
45618;SDS011;31343;47.520;19.144;2023-09-12T08:01:18;2.97;;;2.47;;
45618;SDS011;31343;47.520;19.144;2023-09-12T08:03:44;3.13;;;2.28;;
45618;SDS011;31343;47.520;19.144;2023-09-12T08:06:10;3.95;;;2.60;;
45618;SDS011;31343;47.520;19.144;2023-09-12T08:08:35;4.35;;;2.30;;
45618;SDS011;31343;47.520;19.144;2023-09-12T08:11:01;4.88;;;2.75;;
45618;SDS011;31343;47.520;19.144;2023-09-12T08:13:28;3.53;;;2.40;;
45618;SDS011;31343;47.520;19.144;2023-09-12T08:15:55;5.25;;;2.58;;
45618;SDS011;31343;47.520;19.144;2023-09-12T08:18:21;3.10;;;2.40;;
45618;SDS011;31343;47.520;19.144;2023-09-12T08:20:47;2.90;;;1.80;;
45618;SDS011;31343;47.520;19.144;2023-09-12T08:23:13;2.47;;;1.77;;
45618;SDS011;31343;47.520;19.144;2023-09-12T08:25:41;3.88;;;2.47;;
45618;SDS011;31343;47.520;19.144;2023-09-12T08:28:07;4.15;;;1.58;;
45618;SDS011;31343;47.520;19.144;2023-09-12T08:30:33;2.65;;;2.03;;
45618;SDS011;31343;47.520;19.144;2023-09-12T08:32:58;3.47;;;2.28;;
45618;SDS011;31343;47.520;19.144;2023-09-12T08:35:26;3.17;;;2.65;;
45618;SDS011;31343;47.520;19.144;2023-09-12T08:37:52;3.95;;;2.40;;
45618;SDS011;31343;47.520;19.144;2023-09-12T08:40:18;2.78;;;1.80;;
45618;SDS011;31343;47.520;19.144;2023-09-12T08:42:44;3.78;;;2.25;;
45618;SDS011;31343;47.520;19.144;2023-09-12T08:45:14;2.80;;;2.05;;
45618;SDS011;31343;47.520;19.144;2023-09-12T08:47:42;2.95;;;1.85;;
45618;SDS011;31343;47.520;19.144;2023-09-12T08:50:10;2.58;;;1.98;;
45618;SDS011;31343;47.520;19.144;2023-09-12T08:52:38;2.85;;;1.95;;
45618;SDS011;31343;47.520;19.144;2023-09-12T08:55:04;3.22;;;1.55;;
45618;SDS011;31343;47.520;19.144;2023-09-12T08:57:30;2.47;;;1.90;;
45618;SDS011;31343;47.520;19.144;2023-09-12T08:59:58;2.80;;;1.83;;
45618;SDS011;31343;47.520;19.144;2023-09-12T09:02:31;3.10;;;1.65;;
45618;SDS011;31343;47.520;19.144;2023-09-12T09:04:58;2.92;;;2.10;;
45618;SDS011;31343;47.520;19.144;2023-09-12T09:07:26;3.40;;;2.25;;
45618;SDS011;31343;47.520;19.144;2023-09-12T09:09:53;3.92;;;2.20;;
45618;SDS011;31343;47.520;19.144;2023-09-12T09:12:21;3.55;;;1.98;;
45618;SDS011;31343;47.520;19.144;2023-09-12T09:14:46;2.28;;;1.77;;
45618;SDS011;31343;47.520;19.144;2023-09-12T09:17:12;4.57;;;1.88;;
45618;SDS011;31343;47.520;19.144;2023-09-12T09:19:41;4.15;;;2.88;;
45618;SDS011;31343;47.520;19.144;2023-09-12T09:22:08;2.88;;;2.10;;
45618;SDS011;31343;47.520;19.144;2023-09-12T09:24:33;3.40;;;2.15;;
45618;SDS011;31343;47.520;19.144;2023-09-12T09:26:59;13.43;;;2.28;;
45618;SDS011;31343;47.520;19.144;2023-09-12T09:29:26;2.22;;;1.80;;
45618;SDS011;31343;47.520;19.144;2023-09-12T09:31:57;3.47;;;1.70;;
45618;SDS011;31343;47.520;19.144;2023-09-12T09:34:27;2.38;;;1.38;;
45618;SDS011;31343;47.520;19.144;2023-09-12T09:36:54;2.58;;;1.90;;
45618;SDS011;31343;47.520;19.144;2023-09-12T09:39:25;5.53;;;2.38;;
45618;SDS011;31343;47.520;19.144;2023-09-12T09:41:55;2.20;;;1.90;;
45618;SDS011;31343;47.520;19.144;2023-09-12T09:44:23;2.65;;;1.77;;
45618;SDS011;31343;47.520;19.144;2023-09-12T09:46:54;2.13;;;1.42;;
45618;SDS011;31343;47.520;19.144;2023-09-12T09:49:21;2.85;;;1.88;;
45618;SDS011;31343;47.520;19.144;2023-09-12T09:51:47;2.30;;;1.27;;
45618;SDS011;31343;47.520;19.144;2023-09-12T09:54:13;2.88;;;1.83;;
45618;SDS011;31343;47.520;19.144;2023-09-12T09:56:50;2.20;;;1.55;;
45618;SDS011;31343;47.520;19.144;2023-09-12T09:59:23;1.60;;;1.27;;
45618;SDS011;31343;47.520;19.144;2023-09-12T10:01:51;2.17;;;1.38;;
45618;SDS011;31343;47.520;19.144;2023-09-12T10:04:24;2.58;;;1.52;;
45618;SDS011;31343;47.520;19.144;2023-09-12T10:06:52;1.52;;;1.08;;
45618;SDS011;31343;47.520;19.144;2023-09-12T10:09:22;2.20;;;1.23;;
45618;SDS011;31343;47.520;19.144;2023-09-12T10:11:51;4.35;;;1.42;;
45618;SDS011;31343;47.520;19.144;2023-09-12T10:14:19;1.50;;;1.27;;
45618;SDS011;31343;47.520;19.144;2023-09-12T10:16:47;2.60;;;1.60;;
45618;SDS011;31343;47.520;19.144;2023-09-12T10:19:18;2.20;;;1.50;;
45618;SDS011;31343;47.520;19.144;2023-09-12T10:24:48;1.98;;;1.55;;
45618;SDS011;31343;47.520;19.144;2023-09-12T10:27:15;2.80;;;1.38;;
45618;SDS011;31343;47.520;19.144;2023-09-12T10:29:43;5.80;;;1.70;;
45618;SDS011;31343;47.520;19.144;2023-09-12T10:32:12;2.47;;;1.67;;
45618;SDS011;31343;47.520;19.144;2023-09-12T10:34:40;3.63;;;2.22;;
45618;SDS011;31343;47.520;19.144;2023-09-12T10:37:10;6.15;;;2.47;;
45618;SDS011;31343;47.520;19.144;2023-09-12T10:39:40;2.58;;;1.50;;
45618;SDS011;31343;47.520;19.144;2023-09-12T10:42:08;2.65;;;2.08;;
45618;SDS011;31343;47.520;19.144;2023-09-12T10:44:34;2.60;;;2.00;;
45618;SDS011;31343;47.520;19.144;2023-09-12T10:47:01;2.78;;;1.50;;
45618;SDS011;31343;47.520;19.144;2023-09-12T10:49:28;1.40;;;1.20;;
45618;SDS011;31343;47.520;19.144;2023-09-12T10:51:54;1.85;;;1.30;;
45618;SDS011;31343;47.520;19.144;2023-09-12T10:54:24;3.33;;;2.17;;
45618;SDS011;31343;47.520;19.144;2023-09-12T10:59:33;2.20;;;1.30;;
45618;SDS011;31343;47.520;19.144;2023-09-12T11:04:52;1.73;;;1.30;;
45618;SDS011;31343;47.520;19.144;2023-09-12T11:07:43;2.15;;;1.50;;
45618;SDS011;31343;47.520;19.144;2023-09-12T11:12:44;2.22;;;1.83;;
45618;SDS011;31343;47.520;19.144;2023-09-12T11:15:11;1.42;;;1.33;;
45618;SDS011;31343;47.520;19.144;2023-09-12T11:17:37;3.55;;;1.80;;
45618;SDS011;31343;47.520;19.144;2023-09-12T11:20:04;2.95;;;1.85;;
45618;SDS011;31343;47.520;19.144;2023-09-12T11:22:35;2.78;;;1.50;;
45618;SDS011;31343;47.520;19.144;2023-09-12T11:25:04;2.15;;;1.23;;
45618;SDS011;31343;47.520;19.144;2023-09-12T11:27:44;2.67;;;2.28;;
45618;SDS011;31343;47.520;19.144;2023-09-12T11:30:27;2.08;;;1.45;;
45618;SDS011;31343;47.520;19.144;2023-09-12T11:33:02;1.80;;;1.48;;
45618;SDS011;31343;47.520;19.144;2023-09-12T11:35:30;3.42;;;2.22;;
45618;SDS011;31343;47.520;19.144;2023-09-12T11:38:02;1.98;;;1.50;;
45618;SDS011;31343;47.520;19.144;2023-09-12T11:43:00;1.65;;;1.30;;
45618;SDS011;31343;47.520;19.144;2023-09-12T11:45:26;2.33;;;1.70;;
45618;SDS011;31343;47.520;19.144;2023-09-12T11:47:53;1.67;;;1.20;;
45618;SDS011;31343;47.520;19.144;2023-09-12T11:50:27;1.38;;;1.05;;
45618;SDS011;31343;47.520;19.144;2023-09-12T11:52:59;2.53;;;1.30;;
45618;SDS011;31343;47.520;19.144;2023-09-12T11:55:48;2.95;;;1.80;;
45618;SDS011;31343;47.520;19.144;2023-09-12T11:58:18;1.83;;;1.25;;
45618;SDS011;31343;47.520;19.144;2023-09-12T12:00:45;1.92;;;1.30;;
45618;SDS011;31343;47.520;19.144;2023-09-12T12:03:16;2.30;;;1.65;;
45618;SDS011;31343;47.520;19.144;2023-09-12T12:05:46;2.55;;;1.30;;
45618;SDS011;31343;47.520;19.144;2023-09-12T12:08:13;1.52;;;1.15;;
45618;SDS011;31343;47.520;19.144;2023-09-12T12:10:40;2.08;;;1.30;;
45618;SDS011;31343;47.520;19.144;2023-09-12T12:13:10;2.55;;;1.65;;
45618;SDS011;31343;47.520;19.144;2023-09-12T12:15:37;1.77;;;1.25;;
45618;SDS011;31343;47.520;19.144;2023-09-12T12:18:03;2.88;;;1.52;;
45618;SDS011;31343;47.520;19.144;2023-09-12T12:20:29;2.13;;;1.40;;
45618;SDS011;31343;47.520;19.144;2023-09-12T12:22:55;2.40;;;1.13;;
45618;SDS011;31343;47.520;19.144;2023-09-12T12:25:21;1.83;;;1.30;;
45618;SDS011;31343;47.520;19.144;2023-09-12T12:27:48;1.60;;;1.10;;
45618;SDS011;31343;47.520;19.144;2023-09-12T12:30:14;2.00;;;1.30;;
45618;SDS011;31343;47.520;19.144;2023-09-12T12:32:40;2.20;;;1.52;;
45618;SDS011;31343;47.520;19.144;2023-09-12T12:35:07;2.58;;;1.20;;
45618;SDS011;31343;47.520;19.144;2023-09-12T12:37:33;2.20;;;1.50;;
45618;SDS011;31343;47.520;19.144;2023-09-12T12:40:01;1.70;;;1.17;;
45618;SDS011;31343;47.520;19.144;2023-09-12T12:42:37;2.58;;;1.25;;
45618;SDS011;31343;47.520;19.144;2023-09-12T12:47:40;1.17;;;0.90;;
45618;SDS011;31343;47.520;19.144;2023-09-12T12:50:15;2.28;;;1.23;;
45618;SDS011;31343;47.520;19.144;2023-09-12T12:52:46;2.40;;;1.50;;
45618;SDS011;31343;47.520;19.144;2023-09-12T12:55:13;2.17;;;1.45;;
45618;SDS011;31343;47.520;19.144;2023-09-12T12:57:42;3.25;;;1.45;;
45618;SDS011;31343;47.520;19.144;2023-09-12T13:00:09;2.35;;;1.35;;
45618;SDS011;31343;47.520;19.144;2023-09-12T13:02:37;3.22;;;2.30;;
45618;SDS011;31343;47.520;19.144;2023-09-12T13:05:03;1.48;;;1.10;;
45618;SDS011;31343;47.520;19.144;2023-09-12T13:07:33;2.60;;;1.75;;
45618;SDS011;31343;47.520;19.144;2023-09-12T13:10:00;2.83;;;2.05;;
45618;SDS011;31343;47.520;19.144;2023-09-12T13:12:28;2.95;;;1.92;;
45618;SDS011;31343;47.520;19.144;2023-09-12T13:14:53;2.33;;;1.15;;
45618;SDS011;31343;47.520;19.144;2023-09-12T13:17:19;1.20;;;0.90;;
45618;SDS011;31343;47.520;19.144;2023-09-12T13:19:45;1.67;;;1.10;;
45618;SDS011;31343;47.520;19.144;2023-09-12T13:22:11;2.13;;;1.42;;
45618;SDS011;31343;47.520;19.144;2023-09-12T13:24:36;2.60;;;1.63;;
45618;SDS011;31343;47.520;19.144;2023-09-12T13:27:02;1.90;;;1.55;;
45618;SDS011;31343;47.520;19.144;2023-09-12T13:29:28;1.58;;;1.08;;
45618;SDS011;31343;47.520;19.144;2023-09-12T13:31:54;2.15;;;1.52;;
45618;SDS011;31343;47.520;19.144;2023-09-12T13:34:19;2.63;;;1.45;;
45618;SDS011;31343;47.520;19.144;2023-09-12T13:36:45;4.97;;;1.05;;
45618;SDS011;31343;47.520;19.144;2023-09-12T13:39:11;3.05;;;1.58;;
45618;SDS011;31343;47.520;19.144;2023-09-12T13:41:38;1.85;;;1.48;;
45618;SDS011;31343;47.520;19.144;2023-09-12T13:44:06;3.42;;;1.65;;
45618;SDS011;31343;47.520;19.144;2023-09-12T13:46:32;3.05;;;1.58;;
45618;SDS011;31343;47.520;19.144;2023-09-12T13:48:57;2.92;;;1.45;;
45618;SDS011;31343;47.520;19.144;2023-09-12T13:51:26;2.03;;;1.58;;
45618;SDS011;31343;47.520;19.144;2023-09-12T13:53:52;2.67;;;1.40;;
45618;SDS011;31343;47.520;19.144;2023-09-12T13:56:18;3.38;;;1.73;;
45618;SDS011;31343;47.520;19.144;2023-09-12T13:58:43;2.45;;;1.95;;
45618;SDS011;31343;47.520;19.144;2023-09-12T14:01:09;1.98;;;1.40;;
45618;SDS011;31343;47.520;19.144;2023-09-12T14:03:35;2.25;;;1.27;;
45618;SDS011;31343;47.520;19.144;2023-09-12T14:06:01;5.22;;;1.60;;
45618;SDS011;31343;47.520;19.144;2023-09-12T14:08:27;2.63;;;1.42;;
45618;SDS011;31343;47.520;19.144;2023-09-12T14:10:52;1.73;;;1.10;;
45618;SDS011;31343;47.520;19.144;2023-09-12T14:13:18;1.73;;;1.23;;
45618;SDS011;31343;47.520;19.144;2023-09-12T14:15:44;3.35;;;2.60;;
45618;SDS011;31343;47.520;19.144;2023-09-12T14:18:11;2.95;;;1.50;;
45618;SDS011;31343;47.520;19.144;2023-09-12T14:20:37;1.80;;;1.33;;
45618;SDS011;31343;47.520;19.144;2023-09-12T14:23:03;1.58;;;1.23;;
45618;SDS011;31343;47.520;19.144;2023-09-12T14:25:29;4.03;;;1.60;;
45618;SDS011;31343;47.520;19.144;2023-09-12T14:27:55;3.08;;;1.33;;
45618;SDS011;31343;47.520;19.144;2023-09-12T14:30:21;2.33;;;1.48;;
45618;SDS011;31343;47.520;19.144;2023-09-12T14:32:47;2.83;;;2.38;;
45618;SDS011;31343;47.520;19.144;2023-09-12T14:35:13;2.30;;;1.55;;
45618;SDS011;31343;47.520;19.144;2023-09-12T14:37:39;2.30;;;1.50;;
45618;SDS011;31343;47.520;19.144;2023-09-12T14:40:05;7.55;;;2.03;;
45618;SDS011;31343;47.520;19.144;2023-09-12T14:42:32;3.38;;;1.95;;
45618;SDS011;31343;47.520;19.144;2023-09-12T14:44:58;2.22;;;1.67;;
45618;SDS011;31343;47.520;19.144;2023-09-12T14:47:23;2.50;;;1.48;;
45618;SDS011;31343;47.520;19.144;2023-09-12T14:49:51;3.45;;;2.20;;
45618;SDS011;31343;47.520;19.144;2023-09-12T14:52:17;2.33;;;1.40;;
45618;SDS011;31343;47.520;19.144;2023-09-12T14:54:43;3.33;;;2.00;;